Wednesday, November 21, 2018, 4:58 AM EST
Back to Local

KUNV, State College, University Park Airport

Location: State College, PA, United States Lat: 40.85
Local Time: 4:58 AM EST ( 9:58 GMT) Lon: -77.85
Time Zone: US/Eastern Elev: 1240 ft

Show me the last for .
Show Decoded

2018-11-20 21:53 METAR KUNV 210253Z 28009G15KT 10SM OVC035 00/M05 A3009 =
2018-11-20 20:53 METAR KUNV 210153Z 30011G19KT 10SM BKN041 00/M05 A3008 =
2018-11-20 19:53 METAR KUNV 210053Z 27010KT 10SM SCT031 SCT040 BKN049 01/M04 A3008 =
2018-11-20 18:53 METAR KUNV 202353Z 29011KT 10SM BKN050 01/M03 A3006 =
2018-11-20 17:53 METAR KUNV 202253Z 28009G15KT 10SM OVC050 01/M03 A3005 =
2018-11-20 16:53 METAR KUNV 202153Z 30012G21KT 10SM SCT024 SCT031 OVC050 02/M02 A3003 =
2018-11-20 15:53 METAR KUNV 202053Z 29013KT 10SM BKN024 BKN033 OVC044 02/M01 A3000 =
2018-11-20 14:53 METAR KUNV 201953Z 27010G20KT 10SM SCT025 BKN031 OVC040 02/M02 A2998 =
2018-11-20 13:53 METAR KUNV 201853Z 27010G20KT 10SM SCT025 BKN031 OVC048 03/M02 A2996 =
2018-11-20 12:53 METAR KUNV 201753Z 22011G22KT 10SM OVC031 03/M02 A2996 =
2018-11-20 11:53 METAR KUNV 201653Z 28008G18KT 7SM SCT022 OVC032 02/M01 A2996 =
2018-11-20 10:53 METAR KUNV 201553Z 28008G18KT 7SM SCT020 BKN027 BKN032 03/00 A2996 =
2018-11-20 09:53 METAR KUNV 201453Z 27007KT 6SM BR BKN013 OVC023 02/01 A2995 =
2018-11-20 09:29 METAR KUNV 201429Z 26005KT 6SM BR OVC013 02/01 A2995 =
2018-11-20 08:53 METAR KUNV 201353Z 26006KT 7SM SCT013 BKN046 02/00 A2994 =
2018-11-20 07:53 METAR KUNV 201253Z 25007KT 10SM SCT014 OVC075 01/00 A2993 =
2018-11-20 06:53 METAR KUNV 201153Z 28004KT 10SM SCT075 OVC090 01/01 A2992 =
2018-11-20 05:53 METAR KUNV 201053Z 32004KT 7SM SCT020 OVC031 01/01 A2991 =

Support USWX by starting your Amazon purchase here.